sensor_id;sensor_type;location;lat;lon;timestamp;P1;durP1;ratioP1;P2;durP2;ratioP2
19384;SDS011;9828;54.122;17.974;2023-06-22T00:04:03;5.75;;;4.13;;
19384;SDS011;9828;54.122;17.974;2023-06-22T00:09:25;7.50;;;4.50;;
19384;SDS011;9828;54.122;17.974;2023-06-22T00:14:46;6.85;;;4.18;;
19384;SDS011;9828;54.122;17.974;2023-06-22T00:20:08;5.78;;;4.53;;
19384;SDS011;9828;54.122;17.974;2023-06-22T00:25:30;7.45;;;4.70;;
19384;SDS011;9828;54.122;17.974;2023-06-22T00:30:52;7.32;;;5.10;;
19384;SDS011;9828;54.122;17.974;2023-06-22T00:36:13;7.82;;;5.03;;
19384;SDS011;9828;54.122;17.974;2023-06-22T00:41:36;9.50;;;4.45;;
19384;SDS011;9828;54.122;17.974;2023-06-22T00:46:58;6.40;;;4.80;;
19384;SDS011;9828;54.122;17.974;2023-06-22T00:52:21;6.65;;;4.88;;
19384;SDS011;9828;54.122;17.974;2023-06-22T00:57:48;7.05;;;5.10;;
19384;SDS011;9828;54.122;17.974;2023-06-22T01:03:10;10.45;;;5.10;;
19384;SDS011;9828;54.122;17.974;2023-06-22T01:08:42;8.23;;;4.40;;
19384;SDS011;9828;54.122;17.974;2023-06-22T01:14:14;6.93;;;4.43;;
19384;SDS011;9828;54.122;17.974;2023-06-22T01:19:45;9.93;;;5.32;;
19384;SDS011;9828;54.122;17.974;2023-06-22T01:25:19;9.80;;;4.88;;
19384;SDS011;9828;54.122;17.974;2023-06-22T01:30:47;7.13;;;5.15;;
19384;SDS011;9828;54.122;17.974;2023-06-22T01:36:09;5.70;;;4.53;;
19384;SDS011;9828;54.122;17.974;2023-06-22T01:41:34;8.60;;;5.38;;
19384;SDS011;9828;54.122;17.974;2023-06-22T01:46:57;8.10;;;4.72;;
19384;SDS011;9828;54.122;17.974;2023-06-22T01:52:19;11.60;;;5.95;;
19384;SDS011;9828;54.122;17.974;2023-06-22T01:57:42;7.50;;;4.80;;
19384;SDS011;9828;54.122;17.974;2023-06-22T02:03:13;10.32;;;5.80;;
19384;SDS011;9828;54.122;17.974;2023-06-22T02:08:46;7.57;;;5.57;;
19384;SDS011;9828;54.122;17.974;2023-06-22T02:14:09;8.70;;;5.53;;
19384;SDS011;9828;54.122;17.974;2023-06-22T02:19:32;7.25;;;4.80;;
19384;SDS011;9828;54.122;17.974;2023-06-22T02:24:57;7.57;;;4.97;;
19384;SDS011;9828;54.122;17.974;2023-06-22T02:30:19;11.15;;;5.22;;
19384;SDS011;9828;54.122;17.974;2023-06-22T02:35:40;7.65;;;5.15;;
19384;SDS011;9828;54.122;17.974;2023-06-22T02:41:07;6.05;;;5.22;;
19384;SDS011;9828;54.122;17.974;2023-06-22T02:46:28;10.00;;;5.28;;
19384;SDS011;9828;54.122;17.974;2023-06-22T02:51:49;9.55;;;5.53;;
19384;SDS011;9828;54.122;17.974;2023-06-22T02:57:13;8.32;;;5.28;;
19384;SDS011;9828;54.122;17.974;2023-06-22T03:02:36;8.98;;;5.93;;
19384;SDS011;9828;54.122;17.974;2023-06-22T03:07:57;11.70;;;5.55;;
19384;SDS011;9828;54.122;17.974;2023-06-22T03:13:21;11.18;;;5.35;;
19384;SDS011;9828;54.122;17.974;2023-06-22T03:18:43;14.02;;;5.50;;
19384;SDS011;9828;54.122;17.974;2023-06-22T03:24:06;8.63;;;5.63;;
19384;SDS011;9828;54.122;17.974;2023-06-22T03:29:28;8.88;;;5.38;;
19384;SDS011;9828;54.122;17.974;2023-06-22T03:34:50;10.75;;;5.97;;
19384;SDS011;9828;54.122;17.974;2023-06-22T03:40:12;11.40;;;4.93;;
19384;SDS011;9828;54.122;17.974;2023-06-22T03:45:33;9.20;;;5.80;;
19384;SDS011;9828;54.122;17.974;2023-06-22T03:50:58;8.77;;;5.70;;
19384;SDS011;9828;54.122;17.974;2023-06-22T03:56:20;9.98;;;5.38;;
19384;SDS011;9828;54.122;17.974;2023-06-22T04:01:42;6.20;;;4.90;;
19384;SDS011;9828;54.122;17.974;2023-06-22T04:07:03;9.13;;;4.97;;
19384;SDS011;9828;54.122;17.974;2023-06-22T04:12:24;11.10;;;5.97;;
19384;SDS011;9828;54.122;17.974;2023-06-22T04:17:46;7.40;;;5.20;;
19384;SDS011;9828;54.122;17.974;2023-06-22T04:23:07;6.28;;;4.57;;
19384;SDS011;9828;54.122;17.974;2023-06-22T04:28:29;7.80;;;4.97;;
19384;SDS011;9828;54.122;17.974;2023-06-22T04:33:50;7.70;;;5.57;;
19384;SDS011;9828;54.122;17.974;2023-06-22T04:39:12;8.10;;;5.43;;
19384;SDS011;9828;54.122;17.974;2023-06-22T04:44:33;9.60;;;5.20;;
19384;SDS011;9828;54.122;17.974;2023-06-22T04:49:54;6.13;;;4.70;;
19384;SDS011;9828;54.122;17.974;2023-06-22T04:55:16;6.50;;;4.00;;
19384;SDS011;9828;54.122;17.974;2023-06-22T05:00:38;4.90;;;4.07;;
19384;SDS011;9828;54.122;17.974;2023-06-22T05:06:00;6.57;;;3.78;;
19384;SDS011;9828;54.122;17.974;2023-06-22T05:11:22;10.00;;;4.45;;
19384;SDS011;9828;54.122;17.974;2023-06-22T05:16:44;6.00;;;4.18;;
19384;SDS011;9828;54.122;17.974;2023-06-22T05:22:06;8.38;;;4.53;;
19384;SDS011;9828;54.122;17.974;2023-06-22T05:27:27;5.85;;;3.95;;
19384;SDS011;9828;54.122;17.974;2023-06-22T05:32:49;5.93;;;4.10;;
19384;SDS011;9828;54.122;17.974;2023-06-22T05:38:10;9.85;;;4.32;;
19384;SDS011;9828;54.122;17.974;2023-06-22T05:43:31;6.28;;;3.72;;
19384;SDS011;9828;54.122;17.974;2023-06-22T05:48:53;5.60;;;3.13;;
19384;SDS011;9828;54.122;17.974;2023-06-22T05:54:14;7.75;;;3.47;;
19384;SDS011;9828;54.122;17.974;2023-06-22T05:59:38;5.90;;;3.47;;
19384;SDS011;9828;54.122;17.974;2023-06-22T06:05:00;10.98;;;3.33;;
19384;SDS011;9828;54.122;17.974;2023-06-22T06:10:22;6.78;;;3.03;;
19384;SDS011;9828;54.122;17.974;2023-06-22T06:15:44;7.20;;;2.95;;
19384;SDS011;9828;54.122;17.974;2023-06-22T06:21:05;4.25;;;2.70;;
19384;SDS011;9828;54.122;17.974;2023-06-22T06:26:27;5.03;;;2.88;;
19384;SDS011;9828;54.122;17.974;2023-06-22T06:31:50;4.78;;;2.80;;
19384;SDS011;9828;54.122;17.974;2023-06-22T06:37:11;5.50;;;3.15;;
19384;SDS011;9828;54.122;17.974;2023-06-22T06:42:33;4.85;;;2.45;;
19384;SDS011;9828;54.122;17.974;2023-06-22T06:47:54;5.18;;;2.92;;
19384;SDS011;9828;54.122;17.974;2023-06-22T06:53:16;8.20;;;3.20;;
19384;SDS011;9828;54.122;17.974;2023-06-22T06:58:40;9.57;;;3.00;;
19384;SDS011;9828;54.122;17.974;2023-06-22T07:04:02;6.15;;;2.83;;
19384;SDS011;9828;54.122;17.974;2023-06-22T07:09:24;4.68;;;2.80;;
19384;SDS011;9828;54.122;17.974;2023-06-22T07:14:45;5.03;;;2.40;;
19384;SDS011;9828;54.122;17.974;2023-06-22T07:20:07;5.05;;;2.17;;
19384;SDS011;9828;54.122;17.974;2023-06-22T07:25:30;5.05;;;2.90;;
19384;SDS011;9828;54.122;17.974;2023-06-22T07:30:53;4.97;;;2.50;;
19384;SDS011;9828;54.122;17.974;2023-06-22T07:36:16;3.90;;;2.40;;
19384;SDS011;9828;54.122;17.974;2023-06-22T07:41:38;5.65;;;1.75;;
19384;SDS011;9828;54.122;17.974;2023-06-22T07:47:01;5.70;;;2.28;;
19384;SDS011;9828;54.122;17.974;2023-06-22T07:52:23;4.80;;;2.00;;
19384;SDS011;9828;54.122;17.974;2023-06-22T07:57:46;6.30;;;2.47;;
19384;SDS011;9828;54.122;17.974;2023-06-22T08:03:09;3.58;;;2.80;;
19384;SDS011;9828;54.122;17.974;2023-06-22T08:08:31;3.42;;;2.17;;
19384;SDS011;9828;54.122;17.974;2023-06-22T08:13:53;4.63;;;2.88;;
19384;SDS011;9828;54.122;17.974;2023-06-22T08:19:16;4.47;;;2.58;;
19384;SDS011;9828;54.122;17.974;2023-06-22T08:24:37;4.55;;;2.55;;
19384;SDS011;9828;54.122;17.974;2023-06-22T08:29:59;2.20;;;1.80;;
19384;SDS011;9828;54.122;17.974;2023-06-22T08:35:23;2.70;;;1.90;;
19384;SDS011;9828;54.122;17.974;2023-06-22T08:40:45;7.07;;;2.05;;
19384;SDS011;9828;54.122;17.974;2023-06-22T08:46:07;4.82;;;2.60;;
19384;SDS011;9828;54.122;17.974;2023-06-22T08:51:28;4.38;;;2.22;;
19384;SDS011;9828;54.122;17.974;2023-06-22T08:56:50;4.85;;;2.15;;
19384;SDS011;9828;54.122;17.974;2023-06-22T09:02:12;5.82;;;2.05;;
19384;SDS011;9828;54.122;17.974;2023-06-22T09:07:33;3.25;;;2.15;;
19384;SDS011;9828;54.122;17.974;2023-06-22T09:12:55;3.92;;;1.77;;
19384;SDS011;9828;54.122;17.974;2023-06-22T09:18:17;8.23;;;2.28;;
19384;SDS011;9828;54.122;17.974;2023-06-22T09:23:38;3.15;;;2.10;;
19384;SDS011;9828;54.122;17.974;2023-06-22T09:29:00;6.03;;;2.25;;
19384;SDS011;9828;54.122;17.974;2023-06-22T09:34:21;3.25;;;1.92;;
19384;SDS011;9828;54.122;17.974;2023-06-22T09:39:42;5.95;;;2.20;;
19384;SDS011;9828;54.122;17.974;2023-06-22T09:45:04;3.92;;;2.20;;
19384;SDS011;9828;54.122;17.974;2023-06-22T09:50:26;8.32;;;2.40;;
19384;SDS011;9828;54.122;17.974;2023-06-22T09:55:48;4.30;;;1.88;;
19384;SDS011;9828;54.122;17.974;2023-06-22T10:01:10;3.08;;;1.88;;
19384;SDS011;9828;54.122;17.974;2023-06-22T10:06:31;3.20;;;1.77;;
19384;SDS011;9828;54.122;17.974;2023-06-22T10:11:52;3.15;;;1.80;;
19384;SDS011;9828;54.122;17.974;2023-06-22T10:17:14;7.85;;;1.90;;
19384;SDS011;9828;54.122;17.974;2023-06-22T10:22:35;3.40;;;2.10;;
19384;SDS011;9828;54.122;17.974;2023-06-22T10:27:56;4.05;;;1.77;;
19384;SDS011;9828;54.122;17.974;2023-06-22T10:33:18;2.15;;;1.73;;
19384;SDS011;9828;54.122;17.974;2023-06-22T10:38:39;3.55;;;2.08;;
19384;SDS011;9828;54.122;17.974;2023-06-22T10:44:00;3.83;;;2.05;;
19384;SDS011;9828;54.122;17.974;2023-06-22T10:49:21;4.25;;;2.03;;
19384;SDS011;9828;54.122;17.974;2023-06-22T10:54:42;3.30;;;1.58;;
19384;SDS011;9828;54.122;17.974;2023-06-22T11:00:03;2.83;;;2.00;;
19384;SDS011;9828;54.122;17.974;2023-06-22T11:05:27;2.15;;;1.70;;
19384;SDS011;9828;54.122;17.974;2023-06-22T11:10:49;3.97;;;2.20;;
19384;SDS011;9828;54.122;17.974;2023-06-22T11:16:11;4.63;;;1.60;;
19384;SDS011;9828;54.122;17.974;2023-06-22T11:21:32;2.42;;;1.50;;
19384;SDS011;9828;54.122;17.974;2023-06-22T11:26:54;3.55;;;1.65;;
19384;SDS011;9828;54.122;17.974;2023-06-22T11:32:15;4.22;;;1.70;;
19384;SDS011;9828;54.122;17.974;2023-06-22T11:37:37;1.95;;;1.70;;
19384;SDS011;9828;54.122;17.974;2023-06-22T11:42:58;2.22;;;1.65;;
19384;SDS011;9828;54.122;17.974;2023-06-22T11:48:19;1.67;;;1.52;;
19384;SDS011;9828;54.122;17.974;2023-06-22T11:53:40;1.90;;;1.80;;
19384;SDS011;9828;54.122;17.974;2023-06-22T11:59:02;4.80;;;1.88;;
19384;SDS011;9828;54.122;17.974;2023-06-22T12:04:23;2.40;;;1.80;;
19384;SDS011;9828;54.122;17.974;2023-06-22T12:09:44;4.55;;;1.85;;
19384;SDS011;9828;54.122;17.974;2023-06-22T12:15:06;4.93;;;1.63;;
19384;SDS011;9828;54.122;17.974;2023-06-22T12:20:28;1.55;;;1.45;;
19384;SDS011;9828;54.122;17.974;2023-06-22T12:25:50;3.35;;;2.25;;
19384;SDS011;9828;54.122;17.974;2023-06-22T12:31:11;8.43;;;1.83;;
19384;SDS011;9828;54.122;17.974;2023-06-22T12:36:33;3.33;;;2.15;;
19384;SDS011;9828;54.122;17.974;2023-06-22T12:41:55;3.00;;;1.58;;
19384;SDS011;9828;54.122;17.974;2023-06-22T12:47:16;1.95;;;1.50;;
19384;SDS011;9828;54.122;17.974;2023-06-22T12:59:07;4.00;;;1.55;;
19384;SDS011;9828;54.122;17.974;2023-06-22T13:04:29;3.38;;;1.70;;
19384;SDS011;9828;54.122;17.974;2023-06-22T13:09:50;5.93;;;1.90;;
19384;SDS011;9828;54.122;17.974;2023-06-22T13:15:12;2.50;;;1.40;;
19384;SDS011;9828;54.122;17.974;2023-06-22T13:20:33;2.55;;;1.70;;
19384;SDS011;9828;54.122;17.974;2023-06-22T13:25:54;2.67;;;2.00;;
19384;SDS011;9828;54.122;17.974;2023-06-22T13:31:16;12.70;;;2.30;;
19384;SDS011;9828;54.122;17.974;2023-06-22T13:36:38;6.03;;;1.85;;
19384;SDS011;9828;54.122;17.974;2023-06-22T13:41:59;5.63;;;1.73;;
19384;SDS011;9828;54.122;17.974;2023-06-22T13:47:20;3.00;;;1.80;;
19384;SDS011;9828;54.122;17.974;2023-06-22T13:52:41;10.90;;;1.73;;
19384;SDS011;9828;54.122;17.974;2023-06-22T13:58:02;3.00;;;1.50;;
19384;SDS011;9828;54.122;17.974;2023-06-22T14:03:24;3.20;;;2.40;;
19384;SDS011;9828;54.122;17.974;2023-06-22T14:08:45;3.72;;;1.83;;
19384;SDS011;9828;54.122;17.974;2023-06-22T14:14:06;1.80;;;1.65;;
19384;SDS011;9828;54.122;17.974;2023-06-22T14:19:28;7.32;;;1.70;;
19384;SDS011;9828;54.122;17.974;2023-06-22T14:24:49;6.07;;;1.50;;
19384;SDS011;9828;54.122;17.974;2023-06-22T14:30:10;2.05;;;1.55;;
19384;SDS011;9828;54.122;17.974;2023-06-22T14:35:32;1.98;;;1.60;;
19384;SDS011;9828;54.122;17.974;2023-06-22T14:40:53;4.72;;;1.58;;
19384;SDS011;9828;54.122;17.974;2023-06-22T14:46:19;2.30;;;1.63;;
19384;SDS011;9828;54.122;17.974;2023-06-22T14:51:41;8.57;;;1.73;;
19384;SDS011;9828;54.122;17.974;2023-06-22T14:57:02;4.63;;;1.80;;
19384;SDS011;9828;54.122;17.974;2023-06-22T15:02:23;3.97;;;1.88;;
19384;SDS011;9828;54.122;17.974;2023-06-22T15:07:45;3.58;;;1.70;;
19384;SDS011;9828;54.122;17.974;2023-06-22T15:13:07;1.30;;;1.20;;
19384;SDS011;9828;54.122;17.974;2023-06-22T15:18:28;1.80;;;1.70;;
19384;SDS011;9828;54.122;17.974;2023-06-22T15:23:49;1.40;;;1.30;;
19384;SDS011;9828;54.122;17.974;2023-06-22T15:29:10;16.83;;;2.58;;
19384;SDS011;9828;54.122;17.974;2023-06-22T15:34:32;2.20;;;1.50;;
19384;SDS011;9828;54.122;17.974;2023-06-22T15:39:53;2.72;;;1.45;;
19384;SDS011;9828;54.122;17.974;2023-06-22T15:45:16;2.78;;;1.65;;
19384;SDS011;9828;54.122;17.974;2023-06-22T15:50:38;2.45;;;2.13;;
19384;SDS011;9828;54.122;17.974;2023-06-22T15:55:59;2.53;;;1.92;;
19384;SDS011;9828;54.122;17.974;2023-06-22T16:01:20;1.77;;;1.35;;
19384;SDS011;9828;54.122;17.974;2023-06-22T16:06:42;1.63;;;1.50;;
19384;SDS011;9828;54.122;17.974;2023-06-22T16:12:03;1.52;;;1.42;;
19384;SDS011;9828;54.122;17.974;2023-06-22T16:17:25;4.80;;;1.55;;
19384;SDS011;9828;54.122;17.974;2023-06-22T16:22:47;2.72;;;1.70;;
19384;SDS011;9828;54.122;17.974;2023-06-22T16:28:08;2.53;;;1.80;;
19384;SDS011;9828;54.122;17.974;2023-06-22T16:33:30;3.25;;;1.63;;
19384;SDS011;9828;54.122;17.974;2023-06-22T16:38:51;1.38;;;1.27;;
19384;SDS011;9828;54.122;17.974;2023-06-22T16:44:12;2.67;;;1.67;;
19384;SDS011;9828;54.122;17.974;2023-06-22T16:49:34;2.17;;;1.58;;
19384;SDS011;9828;54.122;17.974;2023-06-22T16:54:59;2.85;;;1.45;;
19384;SDS011;9828;54.122;17.974;2023-06-22T17:00:21;3.58;;;1.95;;
19384;SDS011;9828;54.122;17.974;2023-06-22T17:05:43;2.53;;;1.70;;
19384;SDS011;9828;54.122;17.974;2023-06-22T17:11:07;3.15;;;1.67;;
19384;SDS011;9828;54.122;17.974;2023-06-22T17:16:30;1.70;;;1.60;;
19384;SDS011;9828;54.122;17.974;2023-06-22T17:21:53;2.67;;;2.00;;
19384;SDS011;9828;54.122;17.974;2023-06-22T17:27:16;2.17;;;1.98;;
19384;SDS011;9828;54.122;17.974;2023-06-22T17:32:47;2.75;;;1.65;;
19384;SDS011;9828;54.122;17.974;2023-06-22T17:38:09;2.13;;;1.88;;
19384;SDS011;9828;54.122;17.974;2023-06-22T17:43:44;2.05;;;1.83;;
19384;SDS011;9828;54.122;17.974;2023-06-22T17:49:09;2.90;;;2.15;;
19384;SDS011;9828;54.122;17.974;2023-06-22T17:54:31;2.03;;;1.65;;
19384;SDS011;9828;54.122;17.974;2023-06-22T17:59:54;2.58;;;1.80;;
19384;SDS011;9828;54.122;17.974;2023-06-22T18:05:27;4.70;;;2.20;;
19384;SDS011;9828;54.122;17.974;2023-06-22T18:10:49;3.42;;;2.50;;
19384;SDS011;9828;54.122;17.974;2023-06-22T18:16:11;3.45;;;2.50;;
19384;SDS011;9828;54.122;17.974;2023-06-22T18:21:33;3.03;;;1.90;;
19384;SDS011;9828;54.122;17.974;2023-06-22T18:26:54;3.15;;;1.90;;
19384;SDS011;9828;54.122;17.974;2023-06-22T18:32:17;3.20;;;1.80;;
19384;SDS011;9828;54.122;17.974;2023-06-22T18:37:39;2.15;;;1.67;;
19384;SDS011;9828;54.122;17.974;2023-06-22T18:43:01;2.28;;;2.00;;
19384;SDS011;9828;54.122;17.974;2023-06-22T18:48:23;4.53;;;2.40;;
19384;SDS011;9828;54.122;17.974;2023-06-22T18:53:45;5.15;;;3.28;;
19384;SDS011;9828;54.122;17.974;2023-06-22T19:05:06;5.47;;;3.97;;
19384;SDS011;9828;54.122;17.974;2023-06-22T19:16:00;7.85;;;5.85;;
19384;SDS011;9828;54.122;17.974;2023-06-22T19:21:22;6.75;;;4.47;;
19384;SDS011;9828;54.122;17.974;2023-06-22T19:26:50;7.72;;;5.07;;
19384;SDS011;9828;54.122;17.974;2023-06-22T19:32:12;9.02;;;5.55;;
19384;SDS011;9828;54.122;17.974;2023-06-22T19:37:37;10.07;;;5.78;;
19384;SDS011;9828;54.122;17.974;2023-06-22T19:43:00;10.80;;;5.82;;
19384;SDS011;9828;54.122;17.974;2023-06-22T19:48:26;8.07;;;5.13;;
19384;SDS011;9828;54.122;17.974;2023-06-22T19:53:51;7.18;;;4.38;;
19384;SDS011;9828;54.122;17.974;2023-06-22T19:59:13;5.95;;;3.83;;
19384;SDS011;9828;54.122;17.974;2023-06-22T20:04:40;5.57;;;3.53;;
19384;SDS011;9828;54.122;17.974;2023-06-22T20:10:17;6.85;;;3.28;;
19384;SDS011;9828;54.122;17.974;2023-06-22T20:15:43;5.97;;;3.35;;
19384;SDS011;9828;54.122;17.974;2023-06-22T20:21:11;7.03;;;3.72;;
19384;SDS011;9828;54.122;17.974;2023-06-22T20:26:37;10.55;;;6.60;;
19384;SDS011;9828;54.122;17.974;2023-06-22T20:32:09;12.43;;;6.78;;
19384;SDS011;9828;54.122;17.974;2023-06-22T20:37:35;17.55;;;9.57;;
19384;SDS011;9828;54.122;17.974;2023-06-22T20:42:56;11.90;;;7.18;;
19384;SDS011;9828;54.122;17.974;2023-06-22T20:48:19;9.68;;;6.03;;
19384;SDS011;9828;54.122;17.974;2023-06-22T20:53:48;13.02;;;7.45;;
19384;SDS011;9828;54.122;17.974;2023-06-22T20:59:10;20.05;;;9.30;;
19384;SDS011;9828;54.122;17.974;2023-06-22T21:04:31;17.52;;;9.50;;
19384;SDS011;9828;54.122;17.974;2023-06-22T21:09:54;12.48;;;8.25;;
19384;SDS011;9828;54.122;17.974;2023-06-22T21:15:15;10.40;;;6.32;;
19384;SDS011;9828;54.122;17.974;2023-06-22T21:20:36;10.25;;;6.15;;
19384;SDS011;9828;54.122;17.974;2023-06-22T21:25:58;8.75;;;5.60;;
19384;SDS011;9828;54.122;17.974;2023-06-22T21:31:19;13.73;;;5.93;;
19384;SDS011;9828;54.122;17.974;2023-06-22T21:36:40;11.63;;;4.82;;
19384;SDS011;9828;54.122;17.974;2023-06-22T21:42:02;6.93;;;4.53;;
19384;SDS011;9828;54.122;17.974;2023-06-22T22:12:00;7.28;;;5.07;;
19384;SDS011;9828;54.122;17.974;2023-06-22T22:17:21;9.02;;;5.38;;
19384;SDS011;9828;54.122;17.974;2023-06-22T22:22:42;9.15;;;5.57;;
19384;SDS011;9828;54.122;17.974;2023-06-22T22:28:03;11.25;;;6.72;;
19384;SDS011;9828;54.122;17.974;2023-06-22T22:33:25;10.63;;;6.20;;
19384;SDS011;9828;54.122;17.974;2023-06-22T22:38:48;9.15;;;6.10;;
19384;SDS011;9828;54.122;17.974;2023-06-22T22:44:09;15.23;;;5.85;;
19384;SDS011;9828;54.122;17.974;2023-06-22T22:49:30;10.80;;;5.97;;
19384;SDS011;9828;54.122;17.974;2023-06-22T22:54:51;11.32;;;6.13;;
19384;SDS011;9828;54.122;17.974;2023-06-22T23:00:12;11.85;;;6.82;;
19384;SDS011;9828;54.122;17.974;2023-06-22T23:05:34;16.27;;;8.45;;
19384;SDS011;9828;54.122;17.974;2023-06-22T23:10:55;18.73;;;8.27;;
19384;SDS011;9828;54.122;17.974;2023-06-22T23:16:16;15.02;;;7.22;;
19384;SDS011;9828;54.122;17.974;2023-06-22T23:21:38;9.73;;;5.63;;
19384;SDS011;9828;54.122;17.974;2023-06-22T23:26:59;10.07;;;5.60;;
19384;SDS011;9828;54.122;17.974;2023-06-22T23:32:20;12.60;;;5.97;;
19384;SDS011;9828;54.122;17.974;2023-06-22T23:37:41;10.63;;;5.80;;
19384;SDS011;9828;54.122;17.974;2023-06-22T23:43:03;9.18;;;5.35;;
19384;SDS011;9828;54.122;17.974;2023-06-22T23:48:24;9.13;;;5.00;;
19384;SDS011;9828;54.122;17.974;2023-06-22T23:53:46;7.90;;;4.93;;
19384;SDS011;9828;54.122;17.974;2023-06-22T23:59:07;8.77;;;5.28;;
